sensor_id;sensor_type;location;lat;lon;timestamp;P1;durP1;ratioP1;P2;durP2;ratioP2
17915;SDS011;9083;49.156;8.982;2024-03-02T00:00:33;27.63;;;15.60;;
17915;SDS011;9083;49.156;8.982;2024-03-02T00:03:00;25.37;;;13.50;;
17915;SDS011;9083;49.156;8.982;2024-03-02T00:05:26;27.77;;;13.67;;
17915;SDS011;9083;49.156;8.982;2024-03-02T00:07:53;25.90;;;13.30;;
17915;SDS011;9083;49.156;8.982;2024-03-02T00:10:22;25.97;;;13.60;;
17915;SDS011;9083;49.156;8.982;2024-03-02T00:12:50;27.90;;;14.00;;
17915;SDS011;9083;49.156;8.982;2024-03-02T00:15:23;30.17;;;13.70;;
17915;SDS011;9083;49.156;8.982;2024-03-02T00:17:57;42.60;;;17.73;;
17915;SDS011;9083;49.156;8.982;2024-03-02T00:20:23;42.73;;;18.57;;
17915;SDS011;9083;49.156;8.982;2024-03-02T00:22:52;37.47;;;16.57;;
17915;SDS011;9083;49.156;8.982;2024-03-02T00:25:22;36.70;;;16.70;;
17915;SDS011;9083;49.156;8.982;2024-03-02T00:27:48;32.67;;;15.80;;
17915;SDS011;9083;49.156;8.982;2024-03-02T00:30:37;32.27;;;16.27;;
17915;SDS011;9083;49.156;8.982;2024-03-02T00:33:02;29.50;;;13.17;;
17915;SDS011;9083;49.156;8.982;2024-03-02T00:35:32;31.30;;;13.23;;
17915;SDS011;9083;49.156;8.982;2024-03-02T00:37:59;32.30;;;14.57;;
17915;SDS011;9083;49.156;8.982;2024-03-02T00:40:30;27.37;;;14.27;;
17915;SDS011;9083;49.156;8.982;2024-03-02T00:42:57;28.77;;;13.60;;
17915;SDS011;9083;49.156;8.982;2024-03-02T00:45:23;24.00;;;12.13;;
17915;SDS011;9083;49.156;8.982;2024-03-02T00:47:50;21.80;;;11.57;;
17915;SDS011;9083;49.156;8.982;2024-03-02T00:50:16;21.53;;;11.63;;
17915;SDS011;9083;49.156;8.982;2024-03-02T00:52:42;20.80;;;11.43;;
17915;SDS011;9083;49.156;8.982;2024-03-02T00:55:09;19.87;;;11.70;;
17915;SDS011;9083;49.156;8.982;2024-03-02T00:57:36;23.27;;;12.03;;
17915;SDS011;9083;49.156;8.982;2024-03-02T01:00:03;19.17;;;10.67;;
17915;SDS011;9083;49.156;8.982;2024-03-02T01:02:32;19.30;;;10.53;;
17915;SDS011;9083;49.156;8.982;2024-03-02T01:04:58;21.57;;;10.33;;
17915;SDS011;9083;49.156;8.982;2024-03-02T01:07:24;17.00;;;10.60;;
17915;SDS011;9083;49.156;8.982;2024-03-02T01:09:51;20.80;;;10.70;;
17915;SDS011;9083;49.156;8.982;2024-03-02T01:12:17;19.17;;;10.63;;
17915;SDS011;9083;49.156;8.982;2024-03-02T01:14:45;19.17;;;10.77;;
17915;SDS011;9083;49.156;8.982;2024-03-02T01:17:11;22.83;;;10.77;;
17915;SDS011;9083;49.156;8.982;2024-03-02T01:19:37;19.23;;;10.63;;
17915;SDS011;9083;49.156;8.982;2024-03-02T01:22:05;19.37;;;10.57;;
17915;SDS011;9083;49.156;8.982;2024-03-02T01:24:32;21.50;;;10.27;;
17915;SDS011;9083;49.156;8.982;2024-03-02T01:26:58;20.43;;;10.37;;
17915;SDS011;9083;49.156;8.982;2024-03-02T01:29:24;19.33;;;10.83;;
17915;SDS011;9083;49.156;8.982;2024-03-02T01:31:52;18.50;;;11.30;;
17915;SDS011;9083;49.156;8.982;2024-03-02T01:34:18;20.00;;;11.73;;
17915;SDS011;9083;49.156;8.982;2024-03-02T01:36:45;21.27;;;10.53;;
17915;SDS011;9083;49.156;8.982;2024-03-02T01:39:11;18.30;;;10.60;;
17915;SDS011;9083;49.156;8.982;2024-03-02T01:41:38;21.27;;;11.57;;
17915;SDS011;9083;49.156;8.982;2024-03-02T01:44:04;21.67;;;10.60;;
17915;SDS011;9083;49.156;8.982;2024-03-02T01:46:30;19.90;;;10.43;;
17915;SDS011;9083;49.156;8.982;2024-03-02T01:48:58;21.17;;;10.53;;
17915;SDS011;9083;49.156;8.982;2024-03-02T01:51:24;17.20;;;9.73;;
17915;SDS011;9083;49.156;8.982;2024-03-02T01:53:50;20.23;;;11.03;;
17915;SDS011;9083;49.156;8.982;2024-03-02T01:56:17;16.43;;;9.90;;
17915;SDS011;9083;49.156;8.982;2024-03-02T01:58:43;16.87;;;10.40;;
17915;SDS011;9083;49.156;8.982;2024-03-02T02:01:09;21.13;;;10.77;;
17915;SDS011;9083;49.156;8.982;2024-03-02T02:03:36;16.17;;;9.73;;
17915;SDS011;9083;49.156;8.982;2024-03-02T02:06:04;17.87;;;9.40;;
17915;SDS011;9083;49.156;8.982;2024-03-02T02:08:30;18.93;;;10.60;;
17915;SDS011;9083;49.156;8.982;2024-03-02T02:10:55;24.37;;;10.73;;
17915;SDS011;9083;49.156;8.982;2024-03-02T02:13:21;21.43;;;12.10;;
17915;SDS011;9083;49.156;8.982;2024-03-02T02:15:48;21.90;;;11.90;;
17915;SDS011;9083;49.156;8.982;2024-03-02T02:18:14;16.37;;;9.87;;
17915;SDS011;9083;49.156;8.982;2024-03-02T02:20:40;18.03;;;10.83;;
17915;SDS011;9083;49.156;8.982;2024-03-02T02:23:08;18.60;;;9.97;;
17915;SDS011;9083;49.156;8.982;2024-03-02T02:25:35;14.67;;;9.23;;
17915;SDS011;9083;49.156;8.982;2024-03-02T02:28:01;16.63;;;9.10;;
17915;SDS011;9083;49.156;8.982;2024-03-02T02:30:28;15.57;;;8.43;;
17915;SDS011;9083;49.156;8.982;2024-03-02T02:32:55;16.27;;;10.53;;
17915;SDS011;9083;49.156;8.982;2024-03-02T02:35:21;14.10;;;9.63;;
17915;SDS011;9083;49.156;8.982;2024-03-02T02:37:49;15.70;;;9.23;;
17915;SDS011;9083;49.156;8.982;2024-03-02T02:40:17;16.00;;;10.10;;
17915;SDS011;9083;49.156;8.982;2024-03-02T02:42:44;13.07;;;8.97;;
17915;SDS011;9083;49.156;8.982;2024-03-02T02:45:10;14.43;;;8.20;;
17915;SDS011;9083;49.156;8.982;2024-03-02T02:47:38;17.07;;;8.57;;
17915;SDS011;9083;49.156;8.982;2024-03-02T02:50:06;17.07;;;9.27;;
17915;SDS011;9083;49.156;8.982;2024-03-02T02:52:33;16.50;;;9.40;;
17915;SDS011;9083;49.156;8.982;2024-03-02T02:55:01;16.90;;;9.67;;
17915;SDS011;9083;49.156;8.982;2024-03-02T02:57:29;15.97;;;8.20;;
17915;SDS011;9083;49.156;8.982;2024-03-02T03:00:00;19.23;;;8.67;;
17915;SDS011;9083;49.156;8.982;2024-03-02T03:02:27;13.10;;;7.97;;
17915;SDS011;9083;49.156;8.982;2024-03-02T03:04:53;14.37;;;8.20;;
17915;SDS011;9083;49.156;8.982;2024-03-02T03:07:22;17.03;;;8.70;;
17915;SDS011;9083;49.156;8.982;2024-03-02T03:09:48;18.13;;;9.93;;
17915;SDS011;9083;49.156;8.982;2024-03-02T03:12:14;21.37;;;8.80;;
17915;SDS011;9083;49.156;8.982;2024-03-02T03:14:42;14.53;;;8.77;;
17915;SDS011;9083;49.156;8.982;2024-03-02T03:17:08;14.67;;;9.13;;
17915;SDS011;9083;49.156;8.982;2024-03-02T03:19:34;17.87;;;9.80;;
17915;SDS011;9083;49.156;8.982;2024-03-02T03:22:01;19.13;;;10.07;;
17915;SDS011;9083;49.156;8.982;2024-03-02T03:24:28;16.50;;;9.53;;
17915;SDS011;9083;49.156;8.982;2024-03-02T03:26:54;15.57;;;9.33;;
17915;SDS011;9083;49.156;8.982;2024-03-02T03:29:21;18.43;;;8.97;;
17915;SDS011;9083;49.156;8.982;2024-03-02T03:31:48;13.33;;;8.43;;
17915;SDS011;9083;49.156;8.982;2024-03-02T03:34:15;15.07;;;7.90;;
17915;SDS011;9083;49.156;8.982;2024-03-02T03:36:41;14.60;;;9.00;;
17915;SDS011;9083;49.156;8.982;2024-03-02T03:39:08;16.47;;;8.60;;
17915;SDS011;9083;49.156;8.982;2024-03-02T03:41:34;12.63;;;7.57;;
17915;SDS011;9083;49.156;8.982;2024-03-02T03:44:01;18.17;;;9.40;;
17915;SDS011;9083;49.156;8.982;2024-03-02T03:46:27;18.90;;;8.40;;
17915;SDS011;9083;49.156;8.982;2024-03-02T03:48:54;18.60;;;9.40;;
17915;SDS011;9083;49.156;8.982;2024-03-02T03:51:21;17.17;;;8.47;;
17915;SDS011;9083;49.156;8.982;2024-03-02T03:53:48;18.63;;;9.10;;
17915;SDS011;9083;49.156;8.982;2024-03-02T03:56:14;15.57;;;8.50;;
17915;SDS011;9083;49.156;8.982;2024-03-02T03:58:40;13.93;;;8.47;;
17915;SDS011;9083;49.156;8.982;2024-03-02T04:01:06;14.80;;;9.40;;
17915;SDS011;9083;49.156;8.982;2024-03-02T04:03:33;16.17;;;8.43;;
17915;SDS011;9083;49.156;8.982;2024-03-02T04:06:01;16.13;;;8.70;;
17915;SDS011;9083;49.156;8.982;2024-03-02T04:08:27;14.30;;;8.60;;
17915;SDS011;9083;49.156;8.982;2024-03-02T04:10:54;19.93;;;9.10;;
17915;SDS011;9083;49.156;8.982;2024-03-02T04:13:20;18.03;;;9.00;;
17915;SDS011;9083;49.156;8.982;2024-03-02T04:15:46;15.40;;;9.10;;
17915;SDS011;9083;49.156;8.982;2024-03-02T04:18:12;16.23;;;8.27;;
17915;SDS011;9083;49.156;8.982;2024-03-02T04:20:39;12.30;;;7.93;;
17915;SDS011;9083;49.156;8.982;2024-03-02T04:23:06;16.53;;;8.77;;
17915;SDS011;9083;49.156;8.982;2024-03-02T04:25:33;16.73;;;8.87;;
17915;SDS011;9083;49.156;8.982;2024-03-02T04:27:59;14.30;;;8.03;;
17915;SDS011;9083;49.156;8.982;2024-03-02T04:30:25;12.40;;;7.27;;
17915;SDS011;9083;49.156;8.982;2024-03-02T04:32:51;16.50;;;8.50;;
17915;SDS011;9083;49.156;8.982;2024-03-02T04:35:18;15.60;;;9.00;;
17915;SDS011;9083;49.156;8.982;2024-03-02T04:37:44;22.43;;;10.63;;
17915;SDS011;9083;49.156;8.982;2024-03-02T04:40:12;21.87;;;9.57;;
17915;SDS011;9083;49.156;8.982;2024-03-02T04:42:38;24.17;;;10.63;;
17915;SDS011;9083;49.156;8.982;2024-03-02T04:45:05;23.83;;;11.10;;
17915;SDS011;9083;49.156;8.982;2024-03-02T04:47:32;22.63;;;10.60;;
17915;SDS011;9083;49.156;8.982;2024-03-02T04:49:58;21.07;;;9.37;;
17915;SDS011;9083;49.156;8.982;2024-03-02T04:52:24;19.17;;;8.30;;
17915;SDS011;9083;49.156;8.982;2024-03-02T04:54:51;18.20;;;9.00;;
17915;SDS011;9083;49.156;8.982;2024-03-02T04:57:46;17.27;;;8.73;;
17915;SDS011;9083;49.156;8.982;2024-03-02T05:00:13;15.97;;;8.20;;
17915;SDS011;9083;49.156;8.982;2024-03-02T05:02:39;18.37;;;8.43;;
17915;SDS011;9083;49.156;8.982;2024-03-02T05:05:05;18.27;;;9.67;;
17915;SDS011;9083;49.156;8.982;2024-03-02T05:07:32;15.53;;;8.10;;
17915;SDS011;9083;49.156;8.982;2024-03-02T05:09:58;18.13;;;8.50;;
17915;SDS011;9083;49.156;8.982;2024-03-02T05:12:24;14.57;;;8.23;;
17915;SDS011;9083;49.156;8.982;2024-03-02T05:15:21;15.30;;;8.83;;
17915;SDS011;9083;49.156;8.982;2024-03-02T05:17:48;17.60;;;9.07;;
17915;SDS011;9083;49.156;8.982;2024-03-02T05:20:14;23.63;;;10.63;;
17915;SDS011;9083;49.156;8.982;2024-03-02T05:22:40;18.67;;;9.23;;
17915;SDS011;9083;49.156;8.982;2024-03-02T05:25:07;23.20;;;10.83;;
17915;SDS011;9083;49.156;8.982;2024-03-02T05:27:34;23.07;;;11.73;;
17915;SDS011;9083;49.156;8.982;2024-03-02T05:30:01;26.83;;;11.17;;
17915;SDS011;9083;49.156;8.982;2024-03-02T05:32:28;22.37;;;11.30;;
17915;SDS011;9083;49.156;8.982;2024-03-02T05:34:54;21.30;;;10.13;;
17915;SDS011;9083;49.156;8.982;2024-03-02T05:37:21;27.13;;;13.17;;
17915;SDS011;9083;49.156;8.982;2024-03-02T05:39:47;27.07;;;11.87;;
17915;SDS011;9083;49.156;8.982;2024-03-02T05:42:13;19.93;;;11.17;;
17915;SDS011;9083;49.156;8.982;2024-03-02T05:44:41;20.07;;;10.60;;
17915;SDS011;9083;49.156;8.982;2024-03-02T05:47:08;22.97;;;11.53;;
17915;SDS011;9083;49.156;8.982;2024-03-02T05:49:36;19.17;;;10.67;;
17915;SDS011;9083;49.156;8.982;2024-03-02T05:52:02;19.27;;;9.33;;
17915;SDS011;9083;49.156;8.982;2024-03-02T05:54:28;18.37;;;9.87;;
17915;SDS011;9083;49.156;8.982;2024-03-02T05:56:55;17.27;;;9.77;;
17915;SDS011;9083;49.156;8.982;2024-03-02T05:59:21;19.47;;;9.33;;
17915;SDS011;9083;49.156;8.982;2024-03-02T06:01:47;23.13;;;10.93;;
17915;SDS011;9083;49.156;8.982;2024-03-02T06:04:15;18.63;;;10.00;;
17915;SDS011;9083;49.156;8.982;2024-03-02T06:06:43;22.20;;;10.53;;
17915;SDS011;9083;49.156;8.982;2024-03-02T06:09:09;21.50;;;11.40;;
17915;SDS011;9083;49.156;8.982;2024-03-02T06:11:37;20.20;;;11.63;;
17915;SDS011;9083;49.156;8.982;2024-03-02T06:14:04;21.83;;;10.77;;
17915;SDS011;9083;49.156;8.982;2024-03-02T06:16:31;22.07;;;11.47;;
17915;SDS011;9083;49.156;8.982;2024-03-02T06:18:57;22.70;;;10.17;;
17915;SDS011;9083;49.156;8.982;2024-03-02T06:21:24;22.63;;;10.63;;
17915;SDS011;9083;49.156;8.982;2024-03-02T06:23:51;20.60;;;10.70;;
17915;SDS011;9083;49.156;8.982;2024-03-02T06:26:18;22.93;;;10.97;;
17915;SDS011;9083;49.156;8.982;2024-03-02T06:28:44;21.57;;;11.00;;
17915;SDS011;9083;49.156;8.982;2024-03-02T06:31:10;19.80;;;10.57;;
17915;SDS011;9083;49.156;8.982;2024-03-02T06:33:37;18.63;;;10.90;;
17915;SDS011;9083;49.156;8.982;2024-03-02T06:36:03;23.57;;;10.90;;
17915;SDS011;9083;49.156;8.982;2024-03-02T06:38:30;21.20;;;9.90;;
17915;SDS011;9083;49.156;8.982;2024-03-02T06:40:58;24.20;;;11.17;;
17915;SDS011;9083;49.156;8.982;2024-03-02T06:43:24;23.43;;;10.47;;
17915;SDS011;9083;49.156;8.982;2024-03-02T06:45:51;20.63;;;11.13;;
17915;SDS011;9083;49.156;8.982;2024-03-02T06:48:17;25.13;;;12.03;;
17915;SDS011;9083;49.156;8.982;2024-03-02T06:50:45;24.43;;;9.63;;
17915;SDS011;9083;49.156;8.982;2024-03-02T06:53:11;19.83;;;9.50;;
17915;SDS011;9083;49.156;8.982;2024-03-02T06:55:37;25.10;;;10.53;;
17915;SDS011;9083;49.156;8.982;2024-03-02T06:58:05;22.27;;;11.23;;
17915;SDS011;9083;49.156;8.982;2024-03-02T07:00:31;21.77;;;11.40;;
17915;SDS011;9083;49.156;8.982;2024-03-02T07:02:58;18.17;;;10.13;;
17915;SDS011;9083;49.156;8.982;2024-03-02T07:05:24;20.80;;;10.43;;
17915;SDS011;9083;49.156;8.982;2024-03-02T07:07:50;21.87;;;9.93;;
17915;SDS011;9083;49.156;8.982;2024-03-02T07:10:17;21.23;;;10.17;;
17915;SDS011;9083;49.156;8.982;2024-03-02T07:12:43;17.87;;;9.17;;
17915;SDS011;9083;49.156;8.982;2024-03-02T07:15:11;20.03;;;9.17;;
17915;SDS011;9083;49.156;8.982;2024-03-02T07:17:50;22.97;;;10.90;;
17915;SDS011;9083;49.156;8.982;2024-03-02T07:20:16;18.27;;;9.53;;
17915;SDS011;9083;49.156;8.982;2024-03-02T07:22:42;21.57;;;10.37;;
17915;SDS011;9083;49.156;8.982;2024-03-02T07:25:08;20.60;;;10.77;;
17915;SDS011;9083;49.156;8.982;2024-03-02T07:27:35;23.53;;;11.50;;
17915;SDS011;9083;49.156;8.982;2024-03-02T07:30:01;21.80;;;10.67;;
17915;SDS011;9083;49.156;8.982;2024-03-02T07:32:29;23.97;;;11.67;;
17915;SDS011;9083;49.156;8.982;2024-03-02T07:34:55;19.70;;;10.87;;
17915;SDS011;9083;49.156;8.982;2024-03-02T07:37:21;20.60;;;10.20;;
17915;SDS011;9083;49.156;8.982;2024-03-02T07:39:48;19.83;;;10.17;;
17915;SDS011;9083;49.156;8.982;2024-03-02T07:42:14;20.20;;;10.57;;
17915;SDS011;9083;49.156;8.982;2024-03-02T07:44:41;21.23;;;9.47;;
17915;SDS011;9083;49.156;8.982;2024-03-02T07:47:07;22.50;;;9.50;;
17915;SDS011;9083;49.156;8.982;2024-03-02T07:49:35;23.67;;;10.60;;
17915;SDS011;9083;49.156;8.982;2024-03-02T07:52:01;22.60;;;10.37;;
17915;SDS011;9083;49.156;8.982;2024-03-02T07:54:28;16.80;;;9.93;;
17915;SDS011;9083;49.156;8.982;2024-03-02T07:56:54;18.67;;;9.97;;
17915;SDS011;9083;49.156;8.982;2024-03-02T07:59:20;17.00;;;9.47;;
17915;SDS011;9083;49.156;8.982;2024-03-02T08:01:47;19.97;;;10.47;;
17915;SDS011;9083;49.156;8.982;2024-03-02T08:04:13;20.00;;;9.63;;
17915;SDS011;9083;49.156;8.982;2024-03-02T08:06:40;19.63;;;11.27;;
17915;SDS011;9083;49.156;8.982;2024-03-02T08:09:07;17.73;;;9.43;;
17915;SDS011;9083;49.156;8.982;2024-03-02T08:11:35;17.00;;;9.20;;
17915;SDS011;9083;49.156;8.982;2024-03-02T08:14:02;16.47;;;9.40;;
17915;SDS011;9083;49.156;8.982;2024-03-02T08:16:28;18.57;;;10.53;;
17915;SDS011;9083;49.156;8.982;2024-03-02T08:18:55;18.83;;;9.97;;
17915;SDS011;9083;49.156;8.982;2024-03-02T08:21:23;20.67;;;10.00;;
17915;SDS011;9083;49.156;8.982;2024-03-02T08:23:50;18.63;;;9.50;;
17915;SDS011;9083;49.156;8.982;2024-03-02T08:26:17;16.57;;;8.93;;
17915;SDS011;9083;49.156;8.982;2024-03-02T08:28:43;14.27;;;8.50;;
17915;SDS011;9083;49.156;8.982;2024-03-02T08:31:09;16.00;;;9.17;;
17915;SDS011;9083;49.156;8.982;2024-03-02T08:33:35;23.17;;;9.60;;
17915;SDS011;9083;49.156;8.982;2024-03-02T08:36:02;15.93;;;8.90;;
17915;SDS011;9083;49.156;8.982;2024-03-02T08:38:28;16.17;;;8.20;;
17915;SDS011;9083;49.156;8.982;2024-03-02T08:40:56;13.53;;;8.07;;
17915;SDS011;9083;49.156;8.982;2024-03-02T08:43:22;19.77;;;9.07;;
17915;SDS011;9083;49.156;8.982;2024-03-02T08:45:49;12.20;;;7.23;;
17915;SDS011;9083;49.156;8.982;2024-03-02T08:48:16;14.80;;;8.37;;
17915;SDS011;9083;49.156;8.982;2024-03-02T08:50:42;26.43;;;9.03;;
17915;SDS011;9083;49.156;8.982;2024-03-02T08:53:09;31.73;;;8.70;;
17915;SDS011;9083;49.156;8.982;2024-03-02T08:55:35;15.77;;;8.27;;
17915;SDS011;9083;49.156;8.982;2024-03-02T08:58:03;17.60;;;8.13;;
17915;SDS011;9083;49.156;8.982;2024-03-02T09:00:29;19.97;;;8.80;;
17915;SDS011;9083;49.156;8.982;2024-03-02T09:02:55;22.67;;;8.23;;
17915;SDS011;9083;49.156;8.982;2024-03-02T09:05:21;13.37;;;7.60;;
17915;SDS011;9083;49.156;8.982;2024-03-02T09:07:48;15.13;;;7.73;;
17915;SDS011;9083;49.156;8.982;2024-03-02T09:10:14;18.67;;;8.87;;
17915;SDS011;9083;49.156;8.982;2024-03-02T09:12:40;13.77;;;7.20;;
17915;SDS011;9083;49.156;8.982;2024-03-02T09:15:08;21.17;;;9.40;;
17915;SDS011;9083;49.156;8.982;2024-03-02T09:17:35;12.13;;;6.77;;
17915;SDS011;9083;49.156;8.982;2024-03-02T09:20:01;17.20;;;7.67;;
17915;SDS011;9083;49.156;8.982;2024-03-02T09:22:29;17.40;;;8.17;;
17915;SDS011;9083;49.156;8.982;2024-03-02T09:24:55;10.97;;;7.03;;
17915;SDS011;9083;49.156;8.982;2024-03-02T09:27:22;10.07;;;6.60;;
17915;SDS011;9083;49.156;8.982;2024-03-02T09:29:48;12.97;;;7.07;;
17915;SDS011;9083;49.156;8.982;2024-03-02T09:32:16;15.17;;;7.77;;
17915;SDS011;9083;49.156;8.982;2024-03-02T09:34:42;8.70;;;6.33;;
17915;SDS011;9083;49.156;8.982;2024-03-02T09:37:09;10.50;;;7.03;;
17915;SDS011;9083;49.156;8.982;2024-03-02T09:39:36;13.73;;;7.67;;
17915;SDS011;9083;49.156;8.982;2024-03-02T09:42:02;10.40;;;6.67;;
17915;SDS011;9083;49.156;8.982;2024-03-02T09:44:30;12.93;;;6.90;;
17915;SDS011;9083;49.156;8.982;2024-03-02T09:46:56;9.90;;;7.07;;
17915;SDS011;9083;49.156;8.982;2024-03-02T09:49:24;11.77;;;6.50;;
17915;SDS011;9083;49.156;8.982;2024-03-02T09:51:50;13.43;;;6.93;;
17915;SDS011;9083;49.156;8.982;2024-03-02T09:54:16;10.10;;;6.43;;
17915;SDS011;9083;49.156;8.982;2024-03-02T09:56:43;9.67;;;5.87;;
17915;SDS011;9083;49.156;8.982;2024-03-02T09:59:10;9.43;;;6.73;;
17915;SDS011;9083;49.156;8.982;2024-03-02T10:01:37;10.03;;;6.03;;
17915;SDS011;9083;49.156;8.982;2024-03-02T10:04:03;8.80;;;6.07;;
17915;SDS011;9083;49.156;8.982;2024-03-02T10:06:32;9.87;;;5.83;;
17915;SDS011;9083;49.156;8.982;2024-03-02T10:08:58;8.97;;;5.73;;
17915;SDS011;9083;49.156;8.982;2024-03-02T10:11:25;6.60;;;5.20;;
17915;SDS011;9083;49.156;8.982;2024-03-02T10:13:53;8.33;;;6.03;;
17915;SDS011;9083;49.156;8.982;2024-03-02T10:16:29;14.80;;;5.80;;
17915;SDS011;9083;49.156;8.982;2024-03-02T10:18:56;8.20;;;5.70;;
17915;SDS011;9083;49.156;8.982;2024-03-02T10:21:22;8.37;;;6.03;;
17915;SDS011;9083;49.156;8.982;2024-03-02T10:23:51;8.30;;;5.87;;
17915;SDS011;9083;49.156;8.982;2024-03-02T10:26:18;6.43;;;5.07;;
17915;SDS011;9083;49.156;8.982;2024-03-02T10:28:45;10.63;;;5.70;;
17915;SDS011;9083;49.156;8.982;2024-03-02T10:31:12;8.37;;;5.40;;
17915;SDS011;9083;49.156;8.982;2024-03-02T10:33:39;8.57;;;5.13;;
17915;SDS011;9083;49.156;8.982;2024-03-02T10:36:06;8.63;;;4.60;;
17915;SDS011;9083;49.156;8.982;2024-03-02T10:38:33;7.73;;;4.70;;
17915;SDS011;9083;49.156;8.982;2024-03-02T10:41:01;10.53;;;5.60;;
17915;SDS011;9083;49.156;8.982;2024-03-02T10:43:28;10.10;;;5.10;;
17915;SDS011;9083;49.156;8.982;2024-03-02T10:45:55;6.50;;;4.70;;
17915;SDS011;9083;49.156;8.982;2024-03-02T10:48:22;6.77;;;4.70;;
17915;SDS011;9083;49.156;8.982;2024-03-02T10:50:50;9.73;;;4.90;;
17915;SDS011;9083;49.156;8.982;2024-03-02T10:53:18;5.67;;;4.43;;
17915;SDS011;9083;49.156;8.982;2024-03-02T10:55:45;7.93;;;5.33;;
17915;SDS011;9083;49.156;8.982;2024-03-02T10:58:13;6.77;;;5.17;;
17915;SDS011;9083;49.156;8.982;2024-03-02T11:00:40;4.73;;;4.23;;
17915;SDS011;9083;49.156;8.982;2024-03-02T11:03:07;8.87;;;5.23;;
17915;SDS011;9083;49.156;8.982;2024-03-02T11:05:38;8.40;;;5.03;;
17915;SDS011;9083;49.156;8.982;2024-03-02T11:08:06;7.90;;;4.40;;
17915;SDS011;9083;49.156;8.982;2024-03-02T11:10:34;7.57;;;4.90;;
17915;SDS011;9083;49.156;8.982;2024-03-02T11:13:02;8.27;;;4.63;;
17915;SDS011;9083;49.156;8.982;2024-03-02T11:15:31;6.97;;;4.60;;
17915;SDS011;9083;49.156;8.982;2024-03-02T11:17:57;7.67;;;4.40;;
17915;SDS011;9083;49.156;8.982;2024-03-02T11:20:24;6.60;;;4.87;;
17915;SDS011;9083;49.156;8.982;2024-03-02T11:22:50;6.43;;;4.67;;
17915;SDS011;9083;49.156;8.982;2024-03-02T11:25:23;6.43;;;4.70;;
17915;SDS011;9083;49.156;8.982;2024-03-02T11:27:59;7.03;;;4.80;;
17915;SDS011;9083;49.156;8.982;2024-03-02T11:33:12;3.97;;;3.17;;
17915;SDS011;9083;49.156;8.982;2024-03-02T11:35:41;4.60;;;3.23;;
17915;SDS011;9083;49.156;8.982;2024-03-02T11:38:08;4.80;;;3.53;;
17915;SDS011;9083;49.156;8.982;2024-03-02T11:40:35;4.93;;;3.97;;
17915;SDS011;9083;49.156;8.982;2024-03-02T11:43:01;8.03;;;4.30;;
17915;SDS011;9083;49.156;8.982;2024-03-02T11:45:28;11.90;;;3.93;;
17915;SDS011;9083;49.156;8.982;2024-03-02T11:47:56;10.40;;;3.87;;
17915;SDS011;9083;49.156;8.982;2024-03-02T11:50:29;5.20;;;3.50;;
17915;SDS011;9083;49.156;8.982;2024-03-02T11:52:56;4.23;;;3.37;;
17915;SDS011;9083;49.156;8.982;2024-03-02T11:55:24;8.13;;;3.83;;
17915;SDS011;9083;49.156;8.982;2024-03-02T11:57:51;9.30;;;3.53;;
17915;SDS011;9083;49.156;8.982;2024-03-02T12:00:18;5.07;;;3.43;;
17915;SDS011;9083;49.156;8.982;2024-03-02T12:02:44;4.80;;;2.87;;
17915;SDS011;9083;49.156;8.982;2024-03-02T12:05:14;2.73;;;2.53;;
17915;SDS011;9083;49.156;8.982;2024-03-02T12:07:42;3.53;;;3.23;;
17915;SDS011;9083;49.156;8.982;2024-03-02T12:10:08;3.00;;;2.70;;
17915;SDS011;9083;49.156;8.982;2024-03-02T12:12:35;3.30;;;2.73;;
17915;SDS011;9083;49.156;8.982;2024-03-02T12:15:01;2.10;;;2.00;;
17915;SDS011;9083;49.156;8.982;2024-03-02T12:17:28;3.40;;;2.10;;
17915;SDS011;9083;49.156;8.982;2024-03-02T12:19:55;2.50;;;2.30;;
17915;SDS011;9083;49.156;8.982;2024-03-02T12:22:21;2.47;;;2.03;;
17915;SDS011;9083;49.156;8.982;2024-03-02T12:24:49;14.57;;;2.60;;
17915;SDS011;9083;49.156;8.982;2024-03-02T12:27:15;5.83;;;2.03;;
17915;SDS011;9083;49.156;8.982;2024-03-02T12:29:41;5.17;;;1.73;;
17915;SDS011;9083;49.156;8.982;2024-03-02T12:32:08;1.57;;;1.47;;
17915;SDS011;9083;49.156;8.982;2024-03-02T12:34:34;2.87;;;2.03;;
17915;SDS011;9083;49.156;8.982;2024-03-02T12:37:00;1.43;;;1.37;;
17915;SDS011;9083;49.156;8.982;2024-03-02T12:39:27;1.67;;;1.50;;
17915;SDS011;9083;49.156;8.982;2024-03-02T12:41:54;1.40;;;1.30;;
17915;SDS011;9083;49.156;8.982;2024-03-02T12:44:21;3.13;;;1.77;;
17915;SDS011;9083;49.156;8.982;2024-03-02T12:46:47;1.70;;;1.60;;
17915;SDS011;9083;49.156;8.982;2024-03-02T12:49:14;10.87;;;2.60;;
17915;SDS011;9083;49.156;8.982;2024-03-02T12:51:41;2.70;;;1.07;;
17915;SDS011;9083;49.156;8.982;2024-03-02T12:54:08;1.47;;;1.40;;
17915;SDS011;9083;49.156;8.982;2024-03-02T12:56:34;1.33;;;1.23;;
17915;SDS011;9083;49.156;8.982;2024-03-02T12:59:03;1.50;;;1.40;;
17915;SDS011;9083;49.156;8.982;2024-03-02T13:01:29;3.17;;;1.60;;
17915;SDS011;9083;49.156;8.982;2024-03-02T13:03:56;1.37;;;1.27;;
17915;SDS011;9083;49.156;8.982;2024-03-02T13:06:23;1.70;;;1.60;;
17915;SDS011;9083;49.156;8.982;2024-03-02T13:08:52;1.50;;;1.40;;
17915;SDS011;9083;49.156;8.982;2024-03-02T13:11:19;1.40;;;1.30;;
17915;SDS011;9083;49.156;8.982;2024-03-02T13:13:46;2.03;;;1.33;;
17915;SDS011;9083;49.156;8.982;2024-03-02T13:16:14;1.50;;;1.40;;
17915;SDS011;9083;49.156;8.982;2024-03-02T13:18:41;1.07;;;1.07;;
17915;SDS011;9083;49.156;8.982;2024-03-02T13:21:07;1.67;;;1.57;;
17915;SDS011;9083;49.156;8.982;2024-03-02T13:23:34;1.30;;;1.27;;
17915;SDS011;9083;49.156;8.982;2024-03-02T13:26:00;2.00;;;1.60;;
17915;SDS011;9083;49.156;8.982;2024-03-02T13:28:27;1.30;;;1.30;;
17915;SDS011;9083;49.156;8.982;2024-03-02T13:30:53;0.90;;;0.90;;
17915;SDS011;9083;49.156;8.982;2024-03-02T13:33:21;1.03;;;0.93;;
17915;SDS011;9083;49.156;8.982;2024-03-02T13:35:48;1.10;;;1.07;;
17915;SDS011;9083;49.156;8.982;2024-03-02T13:38:16;1.37;;;1.27;;
17915;SDS011;9083;49.156;8.982;2024-03-02T13:40:42;0.80;;;0.80;;
17915;SDS011;9083;49.156;8.982;2024-03-02T13:43:08;0.90;;;0.90;;
17915;SDS011;9083;49.156;8.982;2024-03-02T13:45:35;0.70;;;0.70;;
17915;SDS011;9083;49.156;8.982;2024-03-02T13:48:02;0.90;;;0.90;;
17915;SDS011;9083;49.156;8.982;2024-03-02T13:50:30;0.80;;;0.80;;
17915;SDS011;9083;49.156;8.982;2024-03-02T13:52:57;0.80;;;0.80;;
17915;SDS011;9083;49.156;8.982;2024-03-02T13:55:24;1.00;;;1.00;;
17915;SDS011;9083;49.156;8.982;2024-03-02T13:57:50;1.43;;;1.00;;
17915;SDS011;9083;49.156;8.982;2024-03-02T14:00:16;1.00;;;1.00;;
17915;SDS011;9083;49.156;8.982;2024-03-02T14:02:43;0.90;;;0.90;;
17915;SDS011;9083;49.156;8.982;2024-03-02T14:05:11;0.80;;;0.80;;
17915;SDS011;9083;49.156;8.982;2024-03-02T14:07:40;0.90;;;0.90;;
17915;SDS011;9083;49.156;8.982;2024-03-02T14:10:07;0.87;;;0.87;;
17915;SDS011;9083;49.156;8.982;2024-03-02T14:12:33;1.97;;;1.17;;
17915;SDS011;9083;49.156;8.982;2024-03-02T14:15:00;3.03;;;1.40;;
17915;SDS011;9083;49.156;8.982;2024-03-02T14:17:28;1.97;;;1.47;;
17915;SDS011;9083;49.156;8.982;2024-03-02T14:19:54;1.17;;;1.17;;
17915;SDS011;9083;49.156;8.982;2024-03-02T14:22:22;2.53;;;1.20;;
17915;SDS011;9083;49.156;8.982;2024-03-02T14:24:49;1.40;;;1.30;;
17915;SDS011;9083;49.156;8.982;2024-03-02T14:27:15;1.33;;;1.23;;
17915;SDS011;9083;49.156;8.982;2024-03-02T14:29:42;0.97;;;0.97;;
17915;SDS011;9083;49.156;8.982;2024-03-02T14:32:09;3.70;;;1.40;;
17915;SDS011;9083;49.156;8.982;2024-03-02T14:34:35;1.33;;;1.20;;
17915;SDS011;9083;49.156;8.982;2024-03-02T14:37:01;1.10;;;1.10;;
17915;SDS011;9083;49.156;8.982;2024-03-02T14:39:27;1.20;;;1.20;;
17915;SDS011;9083;49.156;8.982;2024-03-02T14:41:55;1.80;;;1.30;;
17915;SDS011;9083;49.156;8.982;2024-03-02T14:44:21;2.63;;;1.23;;
17915;SDS011;9083;49.156;8.982;2024-03-02T14:46:48;2.57;;;0.97;;
17915;SDS011;9083;49.156;8.982;2024-03-02T14:49:14;1.40;;;1.30;;